This is the latest recevied weather packets stored in our database for station/object DG7YEO-13. If no packets are shown the sender has not sent any weather packets the latest 10 day(s).
| Time | Temp. | Humidity | Pressure | Rain* | Wind** | Luminosity | Snow |
|---|---|---|---|---|---|---|---|
| 1787504525 | 19.44° C | 56% | 1022.6 hPa | 0 mm | - | - | - |
| 1787503625 | 20° C | 54% | 1022.6 hPa | 0 mm | - | - | - |
| 1787502725 | 20.56° C | 52% | 1022.7 hPa | 0 mm | - | - | - |
| 1787501825 | 21.11° C | 51% | 1022.6 hPa | 0 mm | - | - | - |
| 1787500925 | 21.11° C | 50% | 1022.6 hPa | 0 mm | - | - | - |
| 1787500025 | 20.56° C | 50% | 1022.6 hPa | 0 mm | - | - | - |
| 1787499125 | 20.56° C | 49% | 1022.6 hPa | 0 mm | - | - | - |
| 1787498225 | 20.56° C | 53% | 1022.6 hPa | 0 mm | - | - | - |
| 1787497325 | 21.11° C | 50% | 1022.6 hPa | 0 mm | - | - | - |
| 1787496425 | 21.11° C | 52% | 1022.6 hPa | 0 mm | - | - | - |
| 1787495526 | 21.11° C | 53% | 1022.7 hPa | 0 mm | - | - | - |
| 1787494625 | 20.56° C | 55% | 1022.8 hPa | 0 mm | - | - | - |
| 1787493726 | 20.56° C | 54% | 1022.8 hPa | 0 mm | - | - | - |
| 1787492825 | 21.11° C | 53% | 1022.9 hPa | 0 mm | - | - | - |
| 1787491925 | 21.11° C | 52% | 1022.8 hPa | 0 mm | - | - | - |
| 1787491025 | 20.56° C | 52% | 1022.8 hPa | 0 mm | - | - | - |
| 1787490125 | 20° C | 57% | 1022.9 hPa | 0 mm | - | - | - |
| 1787489225 | 20° C | 55% | 1022.9 hPa | 0 mm | - | - | - |
| 1787488325 | 20° C | 55% | 1022.9 hPa | 0 mm | - | - | - |
| 1787487425 | 20° C | 54% | 1022.8 hPa | 0 mm | - | - | - |
| 1787486525 | 20° C | 55% | 1022.8 hPa | 0 mm | - | - | - |
| 1787485625 | 20.56° C | 54% | 1022.8 hPa | 0 mm | - | - | - |
| 1787484725 | 19.44° C | 58% | 1023 hPa | 0 mm | - | - | - |
| 1787483825 | 19.44° C | 60% | 1023 hPa | 0 mm | - | - | - |
| 1787482925 | 19.44° C | 61% | 1023 hPa | 0 mm | - | - | - |
* Rain latest hour (hover to see other rain measurements)
** Current wind speed in m/s (hover to see current wind gust speed)